Skip Navigation Links
NOAA logo - Click to go to the NOAA homepage
NOAA's National Weather Service
Alaska Aviation Weather Unit
  NWS logo - Click to go to the NWS homepage
Left Navbar Graphic     17 AKDT = 01 GMT

   
NOAA is celebrating 200 years of science, service, and stewardship. Visit the NOAA 200th celebration Web site to learn more.
USA.gov is the U.S. Government's official Web portal to all Federal, state and local government Web resources and services.
Facebook
NWS on Facebook

Important Change Regarding the AAWU Web Presence

 

Over the last several months, the AAWU has been working to navigate its webpages to a nationally supported server. Security, as well as other needs, have necessitated the change.  In the process, we have made an effort to enhance the functionality of our website, as well as some of our products. As of June 27, 2017, aawu.arh.noaa.gov will be discontinued. The new AAWU web address is weather.gov/aawu. It is now live and will run in-parallel with the old site until it is discontinued. Please send any feedback or questions regarding the new webpages to nws.ar.aawu.webauthors@noaa.gov.  Thank you for your patience during this time of transition.
AAWU Home :: Display TAF Add Bookmark
METAR PAGM 251956Z AUTO 12014G18KT 10SM -RA FEW011 OVC017 08/06 A2986
     RMK AO2 SLP119 P0001 T00780061=

SPECI PAGM 252015Z AUTO 13017KT 10SM -RA BKN013 OVC018 08/06 A2986 RMK
     AO2 P0000=

PAGM 252033Z AUTO 11012KT 9SM -RA BKN016 OVC021 07/06 A2985 RMK
     AO2 P0001=

METAR PAGM 252056Z AUTO 13016G21KT 10SM -RA BKN010 OVC017 08/06
 A2985 RMK AO2 CIG 008V015 SLP114 P0001 60002 T00780061 56009=

METAR PAGM 252156Z AUTO 13015KT 10SM -RA OVC012 08/07 A2983 RMK AO2
     SLP108 P0000 T00830067=

SPECI PAGM 252252Z AUTO 12017G22KT 10SM -RA OVC016 08/07 A2981 RMK AO2
     P0001=

METAR PAGM 252256Z AUTO 13018KT 10SM -RA OVC016 08/07 A2981 RMK AO2
     SLP102 P0001 T00830067=

SPECI PAGM 252329Z AUTO 13017KT 10SM -RA OVC014 08/08 A2981 RMK AO2
     P0000=

METAR PAGM 252356Z AUTO 14015KT 10SM -RA OVC008 08/08 A2980 RMK AO2 CIG
     006V012 SLP098 P0000 60003 T00830078 10083 20072 56009=

SPECI PAGM 260043Z AUTO 14014KT 10SM -RA SCT007 OVC010 09/08 A2979 RMK
     AO2 P0000=

METAR PAGM 260056Z AUTO 14012KT 10SM -RA FEW007 BKN010 OVC027 09/08
     A2978 RMK AO2 SLP091 P0000 T00890078=

SPECI PAGM 260103Z AUTO 14013KT 10SM -RA SCT010 OVC027 09/08 A2978 RMK
     AO2 P0000=

SPECI PAGM 260134Z AUTO 13012KT 10SM -RA SCT010 BKN031 OVC047 09/08
 A2977 RMK AO2 P0000=

SPECI PAGM 260141Z AUTO 14016KT 10SM FEW010 BKN027 OVC045 09/08 A2977
     RMK AO2 RAE41 P0000=


NOAA's National Weather Service
Alaska Aviation Weather Unit
6930 Sand Lake Road
Anchorage, AK 99502-1845
Disclaimer
Credits
Glossary
Privacy Policy
About Us
Career Opportunities
Contact AAWU Internet Services Site last modified: April, 17th 2012